Skopje

Airport
ICAO code: 
LWSK
Summary
ICAO Region: 
EUR
Location: 
Skopje,
Coordinates: 
Aerial View: 
41° 57' 42.065" N, 21° 37' 19.891" E
Metar
Observation
LWSK 180500Z 01015KT CAVOK 03/M06 Q1027 NOSIG
Station
Skopje-Petrovec
Date/Time
2022-01-18 05:00:00
Wind direction
10°
Wind speed
15 kts
Lowest cloud amount
clouds and visibility OK
Temperature
3°C
Dew point
-6°C
Humidity
51%
QNH
1027 hPa
Weather condition
n/a

Description

Skopje Airport, or Skopje "Alexander the Great" Airport is the largest and busiest international airport in the Republic of Macedonia. Located 17 km southeast of the national capital, Skopje.

Climatology

Humid “subtropical” climate (Köppen climate classification Cfa) - characterized by hot, humid summers and cool winters. Significant amounts of precipitation occur in all seasons in most areas. Winter rainfall (and sometimes snowfall) is associated with large storms that the westerlies steer from west to east. Most summer rainfall occurs during thunderstorms.

Runways

Designator Length Width Surface Rops
16/34 2450 43 ASP Yes/Yes
Airport map: 
Aerial View: 

SKYbrary Partners:

Safety knowledge contributed by: